createdAt,value
2018-07-19T00:01:27.779Z,18.00
2018-07-19T00:03:08.741Z,19.00
2018-07-19T00:04:46.844Z,21.00
2018-07-19T00:06:23.332Z,19.50
2018-07-19T00:08:00.838Z,21.00
2018-07-19T00:09:38.522Z,20.00
2018-07-19T00:11:18.212Z,18.50
2018-07-19T00:12:55.860Z,29.75
2018-07-19T00:14:34.522Z,20.25
2018-07-19T00:16:12.241Z,18.75
2018-07-19T00:17:49.957Z,23.00
2018-07-19T00:19:28.481Z,22.00
2018-07-19T00:21:05.931Z,30.00
2018-07-19T00:22:45.106Z,18.75
2018-07-19T00:24:22.261Z,19.25
2018-07-19T00:25:58.813Z,21.00
2018-07-19T00:27:37.382Z,22.00
2018-07-19T00:29:15.870Z,23.75
2018-07-19T00:30:55.383Z,19.25
2018-07-19T00:32:31.820Z,23.50
2018-07-19T00:34:09.861Z,21.00
2018-07-19T00:35:49.578Z,21.00
2018-07-19T00:37:32.617Z,20.75
2018-07-19T00:39:10.496Z,20.50
2018-07-19T00:40:47.621Z,20.50
2018-07-19T00:42:26.074Z,20.00
2018-07-19T00:44:02.581Z,20.00
2018-07-19T00:45:40.302Z,22.00
2018-07-19T00:47:18.638Z,20.00
2018-07-19T00:48:56.696Z,20.75
2018-07-19T00:50:33.287Z,24.25
2018-07-19T00:52:10.357Z,19.25
2018-07-19T00:53:46.889Z,19.75
2018-07-19T00:55:23.887Z,22.75
2018-07-19T00:57:01.081Z,22.00
2018-07-19T00:58:37.539Z,19.50
2018-07-19T01:00:17.212Z,21.75
2018-07-19T01:01:54.169Z,18.75
2018-07-19T01:03:30.666Z,21.50
2018-07-19T01:05:07.329Z,19.00
2018-07-19T01:06:47.095Z,22.50
2018-07-19T01:08:25.892Z,21.75
2018-07-19T01:10:06.035Z,20.75
2018-07-19T01:11:44.868Z,20.25
2018-07-19T01:13:21.768Z,17.00
2018-07-19T01:15:00.489Z,18.50
2018-07-19T01:17:05.209Z,20.00
2018-07-19T01:18:56.990Z,22.50
2018-07-19T01:20:35.300Z,23.50
2018-07-19T01:22:11.804Z,20.75
2018-07-19T01:23:51.346Z,24.00
2018-07-19T01:25:27.867Z,20.00
2018-07-19T01:27:06.974Z,21.00
2018-07-19T01:28:43.596Z,21.00
2018-07-19T01:30:20.497Z,20.75
2018-07-19T01:31:57.274Z,20.50
2018-07-19T01:33:34.181Z,20.00
2018-07-19T01:35:10.890Z,20.00
2018-07-19T01:36:47.643Z,21.75
2018-07-19T01:38:24.853Z,18.75
2018-07-19T01:40:03.080Z,20.50
2018-07-19T01:42:30.412Z,21.75
2018-07-19T01:44:10.048Z,21.25
2018-07-19T01:45:48.675Z,19.50
2018-07-19T01:47:26.502Z,23.75
2018-07-19T01:49:02.937Z,23.00
2018-07-19T01:50:40.497Z,22.25
2018-07-19T01:52:18.694Z,19.25
2018-07-19T01:53:56.431Z,20.00
2018-07-19T01:55:34.979Z,22.50
2018-07-19T01:57:13.355Z,18.25
2018-07-19T01:58:50.194Z,18.00
2018-07-19T02:00:27.247Z,22.50
2018-07-19T02:02:03.852Z,22.00
2018-07-19T02:03:40.505Z,18.25
2018-07-19T02:05:17.452Z,20.25
2018-07-19T02:06:56.182Z,21.25
2018-07-19T02:08:34.097Z,25.25
2018-07-19T02:10:11.003Z,20.25
2018-07-19T02:11:48.859Z,21.75
2018-07-19T02:13:25.327Z,19.25
2018-07-19T02:15:01.756Z,23.00
2018-07-19T02:16:39.950Z,23.25
2018-07-19T02:18:16.583Z,27.25
2018-07-19T02:19:53.735Z,24.25
2018-07-19T02:21:30.424Z,22.50
2018-07-19T02:23:07.398Z,20.75
2018-07-19T02:24:44.258Z,23.75
2018-07-19T02:26:22.583Z,28.75
2018-07-19T02:27:59.417Z,24.50
2018-07-19T02:29:36.291Z,24.50
2018-07-19T02:31:14.761Z,21.50
2018-07-19T02:32:51.553Z,21.50
2018-07-19T02:34:28.850Z,22.75
2018-07-19T02:36:05.322Z,21.25
2018-07-19T02:37:42.083Z,24.25
2018-07-19T02:39:18.675Z,23.75
2018-07-19T02:40:55.132Z,22.75
2018-07-19T02:42:35.841Z,31.75
2018-07-19T02:44:16.584Z,23.25
2018-07-19T02:45:56.145Z,35.75
2018-07-19T02:47:33.145Z,23.50
2018-07-19T02:49:10.350Z,22.25
2018-07-19T02:50:48.341Z,25.75
2018-07-19T02:52:25.105Z,23.50
2018-07-19T02:54:01.987Z,21.75
2018-07-19T02:55:38.703Z,23.50
2018-07-19T02:57:16.178Z,23.00
2018-07-19T02:58:54.057Z,25.25
2018-07-19T03:00:30.875Z,22.25
2018-07-19T03:02:11.790Z,26.00
2018-07-19T03:03:50.760Z,25.75
2018-07-19T03:05:33.884Z,22.25
2018-07-19T03:07:11.341Z,23.75
2018-07-19T03:08:47.997Z,25.75
2018-07-19T03:10:24.595Z,23.25
2018-07-19T03:12:01.605Z,23.75
2018-07-19T03:13:39.853Z,21.75
2018-07-19T03:16:54.402Z,21.00
2018-07-19T03:18:31.166Z,29.25
2018-07-19T03:20:11.746Z,24.25
2018-07-19T03:21:49.198Z,20.00
2018-07-19T03:23:27.713Z,44.00
2018-07-19T03:25:07.528Z,26.25
2018-07-19T03:26:44.351Z,24.00
2018-07-19T03:28:21.708Z,24.25
2018-07-19T03:29:58.316Z,23.75
2018-07-19T03:31:34.835Z,27.25
2018-07-19T03:33:13.466Z,24.50
2018-07-19T03:34:50.052Z,24.00
2018-07-19T03:36:26.473Z,21.00
2018-07-19T03:38:02.776Z,25.75
2018-07-19T03:39:39.196Z,29.75
2018-07-19T03:41:16.524Z,27.75
2018-07-19T03:42:52.974Z,30.00
2018-07-19T03:44:30.605Z,39.00
2018-07-19T03:46:08.772Z,27.50
2018-07-19T03:47:45.887Z,26.50
2018-07-19T03:49:22.763Z,23.00
2018-07-19T03:51:00.070Z,23.50
2018-07-19T03:52:36.891Z,24.00
2018-07-19T03:54:13.900Z,26.00
2018-07-19T03:55:51.748Z,25.00
2018-07-19T03:57:28.147Z,24.25
2018-07-19T03:59:04.909Z,29.50
2018-07-19T04:00:42.214Z,30.25
2018-07-19T04:02:19.431Z,27.00
2018-07-19T04:03:56.501Z,30.00
2018-07-19T04:05:34.086Z,27.00
2018-07-19T04:07:11.269Z,23.75
2018-07-19T04:08:48.380Z,25.25
2018-07-19T04:10:24.969Z,24.00
2018-07-19T04:12:02.330Z,30.50
2018-07-19T04:13:49.900Z,25.25
2018-07-19T04:15:28.289Z,29.50
2018-07-19T04:17:04.730Z,25.75
2018-07-19T04:18:42.259Z,28.50
2018-07-19T04:20:33.782Z,28.25
2018-07-19T04:22:11.153Z,26.75
2018-07-19T04:23:49.117Z,28.25
2018-07-19T04:25:26.063Z,26.00
2018-07-19T04:27:02.793Z,27.25
2018-07-19T04:28:39.265Z,27.00
2018-07-19T04:30:18.045Z,27.75
2018-07-19T04:31:55.750Z,25.25
2018-07-19T04:33:32.082Z,22.00
2018-07-19T04:35:08.548Z,23.25
2018-07-19T04:36:45.519Z,21.50
2018-07-19T04:38:22.053Z,26.00
2018-07-19T04:39:58.356Z,24.25
2018-07-19T04:41:34.976Z,25.00
2018-07-19T04:43:12.704Z,22.75
2018-07-19T04:44:50.279Z,26.00
2018-07-19T04:46:38.456Z,22.25
2018-07-19T04:48:15.096Z,25.00
2018-07-19T04:49:51.439Z,25.75
2018-07-19T04:51:28.343Z,25.25
2018-07-19T04:53:06.282Z,25.50
2018-07-19T04:54:45.915Z,20.50
2018-07-19T04:56:23.729Z,22.50
2018-07-19T04:58:00.588Z,23.25
2018-07-19T04:59:37.190Z,23.00
2018-07-19T05:01:13.908Z,23.75
2018-07-19T05:02:51.337Z,27.25
2018-07-19T05:04:29.553Z,21.25
2018-07-19T05:06:07.476Z,25.00
2018-07-19T05:07:43.787Z,24.00
2018-07-19T05:09:22.528Z,27.00
2018-07-19T05:11:01.118Z,28.00
2018-07-19T05:12:38.262Z,28.25
2018-07-19T05:14:18.749Z,21.50
2018-07-19T05:15:57.502Z,27.00
2018-07-19T05:17:36.096Z,28.50
2018-07-19T05:19:12.399Z,26.00
2018-07-19T05:20:50.747Z,27.50
2018-07-19T05:22:27.169Z,25.75
2018-07-19T05:24:05.568Z,24.50
2018-07-19T05:25:42.796Z,26.25
2018-07-19T05:27:21.188Z,26.50
2018-07-19T05:28:58.348Z,22.75
2018-07-19T05:30:35.372Z,23.50
2018-07-19T05:32:11.798Z,22.25
2018-07-19T05:33:49.833Z,22.75
2018-07-19T05:35:26.170Z,26.25
2018-07-19T05:37:02.960Z,29.50
2018-07-19T05:38:40.541Z,24.75
2018-07-19T05:40:17.305Z,23.25
2018-07-19T05:41:53.753Z,21.50
2018-07-19T05:43:31.554Z,25.50
2018-07-19T05:45:10.240Z,23.75
2018-07-19T05:46:49.122Z,25.25
2018-07-19T05:48:25.465Z,26.00
2018-07-19T05:50:03.345Z,28.00
2018-07-19T05:51:40.620Z,27.50
2018-07-19T05:53:17.561Z,25.75
2018-07-19T05:54:54.577Z,24.75
2018-07-19T05:56:33.604Z,26.25
2018-07-19T05:58:11.463Z,23.75
2018-07-19T05:59:49.101Z,24.25
2018-07-19T06:01:29.428Z,24.50
2018-07-19T06:03:08.525Z,24.50
2018-07-19T06:04:46.872Z,25.25
2018-07-19T06:06:27.453Z,23.75
2018-07-19T06:08:05.983Z,24.75
2018-07-19T06:09:43.348Z,28.25
2018-07-19T06:11:20.727Z,24.00
2018-07-19T06:12:57.995Z,22.75
2018-07-19T06:14:35.158Z,23.75
2018-07-19T06:16:12.550Z,21.75
2018-07-19T06:17:51.752Z,25.25
2018-07-19T06:19:29.398Z,24.75
2018-07-19T06:21:06.802Z,24.50
2018-07-19T06:22:45.214Z,23.50
2018-07-19T06:24:24.815Z,19.75
2018-07-19T06:26:02.177Z,23.25
2018-07-19T06:27:39.602Z,17.75
2018-07-19T06:29:46.691Z,23.00
2018-07-19T06:31:53.081Z,22.50
2018-07-19T06:33:31.253Z,24.50
2018-07-19T06:35:08.693Z,21.25
2018-07-19T06:36:45.812Z,22.50
2018-07-19T06:38:23.477Z,19.50
2018-07-19T06:40:00.574Z,21.25
2018-07-19T06:41:38.178Z,23.25
2018-07-19T06:43:22.507Z,16.75
2018-07-19T06:44:59.461Z,18.50
2018-07-19T06:46:36.814Z,17.75
2018-07-19T06:48:15.607Z,19.25
2018-07-19T06:49:52.430Z,16.25
2018-07-19T06:51:30.293Z,20.00
2018-07-19T06:53:10.877Z,16.50
2018-07-19T06:54:47.908Z,17.00
2018-07-19T06:56:28.069Z,18.25
2018-07-19T06:58:06.373Z,17.75
2018-07-19T06:59:44.721Z,19.75
2018-07-19T07:01:21.297Z,17.75
2018-07-19T07:02:58.765Z,17.00
2018-07-19T07:04:37.793Z,18.00
2018-07-19T07:06:16.310Z,17.25
2018-07-19T07:07:53.548Z,21.00
2018-07-19T07:09:30.804Z,15.00
2018-07-19T07:11:09.355Z,21.50
2018-07-19T07:12:46.535Z,18.00
2018-07-19T07:14:23.732Z,18.75
2018-07-19T07:16:01.706Z,16.00
2018-07-19T07:17:43.483Z,23.25
2018-07-19T07:19:21.548Z,13.75
2018-07-19T07:20:57.975Z,21.25
2018-07-19T07:22:35.932Z,15.00
2018-07-19T07:24:15.711Z,14.00
2018-07-19T07:25:56.695Z,18.00
2018-07-19T07:27:33.339Z,19.00
2018-07-19T07:29:10.600Z,17.00
2018-07-19T07:30:48.802Z,15.25
2018-07-19T07:32:25.892Z,20.25
2018-07-19T07:34:04.278Z,17.25
2018-07-19T07:35:40.530Z,20.50
2018-07-19T07:37:32.566Z,18.75
2018-07-19T07:39:14.030Z,16.25
2018-07-19T07:40:50.439Z,20.00
2018-07-19T07:42:28.568Z,16.50
2018-07-19T07:44:06.380Z,19.00
2018-07-19T07:45:44.894Z,15.00
2018-07-19T07:47:23.272Z,15.00
2018-07-19T07:49:00.813Z,17.25
2018-07-19T07:50:38.242Z,18.75
2018-07-19T07:52:14.558Z,19.00
2018-07-19T07:53:51.511Z,16.00
2018-07-19T07:55:27.922Z,15.75
2018-07-19T07:57:04.458Z,18.75
2018-07-19T07:58:41.531Z,18.75
2018-07-19T08:00:20.057Z,15.50
2018-07-19T08:01:56.971Z,18.50
2018-07-19T08:03:36.457Z,20.50
2018-07-19T08:05:15.743Z,18.25
2018-07-19T08:06:52.175Z,16.75
2018-07-19T08:08:29.502Z,20.50
2018-07-19T08:10:08.120Z,17.50
2018-07-19T08:11:44.526Z,21.25
2018-07-19T08:13:21.843Z,18.00
2018-07-19T08:15:00.517Z,18.00
2018-07-19T08:16:39.476Z,18.25
2018-07-19T08:18:17.969Z,19.25
2018-07-19T08:19:54.325Z,20.00
2018-07-19T08:21:31.799Z,19.25
2018-07-19T08:23:08.999Z,24.75
2018-07-19T08:24:47.596Z,19.00
2018-07-19T08:26:26.033Z,18.00
2018-07-19T08:28:04.215Z,19.75
2018-07-19T08:29:43.272Z,22.50
2018-07-19T08:31:27.610Z,22.25
2018-07-19T08:33:04.482Z,19.75
2018-07-19T08:34:42.343Z,23.00
2018-07-19T08:36:21.298Z,18.25
2018-07-19T08:37:59.344Z,18.50
2018-07-19T08:39:37.114Z,19.50
2018-07-19T08:41:15.524Z,16.75
2018-07-19T08:42:53.846Z,17.75
2018-07-19T08:44:38.666Z,17.25
2018-07-19T08:46:18.936Z,24.25
2018-07-19T08:47:55.847Z,17.25
2018-07-19T08:49:32.708Z,17.00
2018-07-19T08:51:12.580Z,19.25
2018-07-19T08:52:50.691Z,21.25
2018-07-19T08:54:27.194Z,16.25
2018-07-19T08:56:13.525Z,19.00
2018-07-19T08:57:51.438Z,18.00
2018-07-19T08:59:33.751Z,16.25
2018-07-19T09:01:11.927Z,16.50
2018-07-19T09:02:48.277Z,18.25
2018-07-19T09:04:25.384Z,16.25
2018-07-19T09:06:03.005Z,14.75
2018-07-19T09:07:39.437Z,14.75
2018-07-19T09:09:17.743Z,14.75
2018-07-19T09:10:54.871Z,17.50
2018-07-19T09:12:34.862Z,14.00
2018-07-19T09:14:12.796Z,16.75
2018-07-19T09:15:49.872Z,15.00
2018-07-19T09:17:28.917Z,15.50
2018-07-19T09:19:09.803Z,14.75
2018-07-19T09:20:48.100Z,17.00
2018-07-19T09:22:27.569Z,16.25
2018-07-19T09:24:06.613Z,15.75
2018-07-19T09:25:47.471Z,20.50
2018-07-19T09:27:25.700Z,16.75
2018-07-19T09:29:04.483Z,14.75
2018-07-19T09:30:45.700Z,16.00
2018-07-19T09:32:23.513Z,16.75
2018-07-19T09:34:00.695Z,15.50
2018-07-19T09:35:38.232Z,17.25
2018-07-19T09:37:28.502Z,18.00
2018-07-19T09:39:09.000Z,12.75
2018-07-19T09:43:19.170Z,17.25
2018-07-19T09:44:55.407Z,16.50
2018-07-19T09:46:33.939Z,18.25
2018-07-19T09:48:11.426Z,18.50
2018-07-19T09:49:51.015Z,17.25
2018-07-19T09:51:28.302Z,17.00
2018-07-19T09:53:07.521Z,22.00
2018-07-19T09:54:57.150Z,15.75
2018-07-19T09:56:37.309Z,18.50
2018-07-19T09:58:16.902Z,15.00
2018-07-19T09:59:53.825Z,15.50
2018-07-19T10:01:32.050Z,15.50
2018-07-19T10:03:10.703Z,18.25
2018-07-19T10:04:47.961Z,13.25
2018-07-19T10:06:25.873Z,14.00
2018-07-19T10:08:03.253Z,12.50
2018-07-19T10:09:42.593Z,15.25
2018-07-19T10:11:19.328Z,11.00
2018-07-19T10:12:57.266Z,14.50
2018-07-19T10:14:38.981Z,14.75
2018-07-19T10:16:19.328Z,14.25
2018-07-19T10:17:56.633Z,14.50
2018-07-19T10:19:36.592Z,14.50
2018-07-19T10:21:14.671Z,17.00
2018-07-19T10:22:54.253Z,17.25
2018-07-19T10:24:31.355Z,16.00
2018-07-19T10:26:10.412Z,14.00
2018-07-19T10:27:47.662Z,14.75
2018-07-19T10:29:25.366Z,16.25
2018-07-19T10:31:02.214Z,12.50
2018-07-19T10:32:38.981Z,14.50
2018-07-19T10:34:15.666Z,13.25
2018-07-19T10:35:54.251Z,16.00
2018-07-19T10:37:31.982Z,15.50
2018-07-19T10:39:10.362Z,14.25
2018-07-19T10:42:25.099Z,18.00
2018-07-19T10:44:06.244Z,19.75
2018-07-19T10:45:50.101Z,15.75
2018-07-19T10:47:28.218Z,17.50
2018-07-19T10:49:13.910Z,15.50
2018-07-19T10:50:52.656Z,18.75
2018-07-19T10:52:34.792Z,20.00
2018-07-19T10:54:13.173Z,17.75
2018-07-19T10:55:52.575Z,16.75
2018-07-19T10:57:31.440Z,19.25
2018-07-19T10:59:09.898Z,19.25
2018-07-19T11:00:50.541Z,18.75
2018-07-19T11:02:26.912Z,15.25
2018-07-19T11:04:05.271Z,22.25
2018-07-19T11:05:44.757Z,20.75
2018-07-19T11:07:21.492Z,62.00
2018-07-19T11:09:00.823Z,22.25
2018-07-19T11:10:38.739Z,21.75
2018-07-19T11:12:15.305Z,20.00
2018-07-19T11:13:53.975Z,21.75
2018-07-19T11:15:30.959Z,20.00
2018-07-19T11:17:24.339Z,19.75
2018-07-19T11:19:01.518Z,24.25
2018-07-19T11:20:40.275Z,22.00
2018-07-19T11:22:22.549Z,19.50
2018-07-19T11:23:59.763Z,21.00
2018-07-19T11:25:55.388Z,17.25
2018-07-19T11:27:34.625Z,21.75
2018-07-19T11:29:12.332Z,18.75
2018-07-19T11:30:52.662Z,19.25
2018-07-19T11:32:32.770Z,17.25
2018-07-19T11:34:10.896Z,20.00
2018-07-19T11:35:50.193Z,17.00
2018-07-19T11:37:29.188Z,22.75
2018-07-19T11:39:08.662Z,18.50
2018-07-19T11:40:44.961Z,17.25
2018-07-19T11:42:24.661Z,16.00
2018-07-19T11:44:02.364Z,17.50
2018-07-19T11:45:39.855Z,19.25
2018-07-19T11:47:17.365Z,18.25
2018-07-19T11:48:55.940Z,20.50
2018-07-19T11:50:38.383Z,20.75
2018-07-19T11:52:15.451Z,19.50
2018-07-19T11:53:52.502Z,17.75
2018-07-19T11:55:29.647Z,21.50
2018-07-19T11:57:12.394Z,20.50
2018-07-19T11:58:50.572Z,17.75
2018-07-19T12:00:29.364Z,22.00
2018-07-19T14:10:28.438Z,26.75
2018-07-19T14:12:05.889Z,25.00
2018-07-19T14:13:44.329Z,25.00
2018-07-19T14:15:26.392Z,36.75
2018-07-19T14:17:02.828Z,27.25
2018-07-19T14:18:40.539Z,23.00
2018-07-19T14:22:14.106Z,20.75
2018-07-19T14:23:53.820Z,26.75
2018-07-19T14:25:37.707Z,25.25
2018-07-19T14:27:20.077Z,27.25
2018-07-19T14:32:52.422Z,33.50
2018-07-19T14:34:42.995Z,38.25
2018-07-19T14:36:25.496Z,28.75
2018-07-19T14:38:13.429Z,26.75
2018-07-19T14:40:02.656Z,30.25
2018-07-19T14:41:40.508Z,24.00
2018-07-19T14:43:17.173Z,22.50
2018-07-19T14:44:58.383Z,24.00
2018-07-19T14:46:39.387Z,28.50
2018-07-19T14:48:19.713Z,39.50
2018-07-19T14:50:01.218Z,27.50
2018-07-19T14:51:39.337Z,24.75
2018-07-19T14:53:17.524Z,25.50
2018-07-19T14:54:58.507Z,26.75
2018-07-19T14:56:37.463Z,62.00
2018-07-19T14:58:14.385Z,47.50
2018-07-19T14:59:53.217Z,30.75
2018-07-19T15:01:30.311Z,26.75
2018-07-19T15:03:08.306Z,27.25
2018-07-19T15:04:44.796Z,25.00
2018-07-19T15:06:24.646Z,24.25
2018-07-19T15:08:03.393Z,25.50
2018-07-19T15:09:41.654Z,28.50
2018-07-19T15:11:18.198Z,27.75
2018-07-19T15:12:58.037Z,25.75
2018-07-19T15:14:36.619Z,31.50
2018-07-19T15:16:13.268Z,27.00
2018-07-19T15:17:53.543Z,25.50
2018-07-19T15:19:30.736Z,29.75
2018-07-19T15:21:08.754Z,33.25
2018-07-19T15:22:47.555Z,28.25
2018-07-19T15:24:24.498Z,26.00
2018-07-19T15:26:02.951Z,26.00
2018-07-19T15:27:42.083Z,28.00
2018-07-19T15:29:19.947Z,23.75
2018-07-19T15:31:01.133Z,30.25
2018-07-19T15:32:39.061Z,26.50
2018-07-19T15:34:18.443Z,24.50
2018-07-19T15:35:56.857Z,24.50
2018-07-19T15:37:33.950Z,27.25
2018-07-19T15:39:12.042Z,26.50
2018-07-19T15:41:03.087Z,24.75
2018-07-19T15:42:43.551Z,27.75
2018-07-19T15:44:26.761Z,27.25
2018-07-19T15:46:04.382Z,26.00
2018-07-19T15:48:19.291Z,26.00
2018-07-19T15:50:17.704Z,25.25
2018-07-19T15:58:01.722Z,25.00
2018-07-19T15:59:40.004Z,26.75
2018-07-19T16:01:19.725Z,27.00
2018-07-19T16:02:57.490Z,26.00
2018-07-19T16:06:53.025Z,25.50
2018-07-19T16:08:30.493Z,28.50
2018-07-19T16:10:07.869Z,27.25
2018-07-19T16:11:51.421Z,25.25
2018-07-19T16:13:35.007Z,26.75
2018-07-19T16:15:15.304Z,25.75
2018-07-19T16:16:52.972Z,25.25
2018-07-19T16:18:31.317Z,25.00
2018-07-19T16:20:11.069Z,24.75
2018-07-19T16:21:49.230Z,25.00
2018-07-19T16:23:25.774Z,30.25
2018-07-19T16:25:03.496Z,26.25
2018-07-19T16:26:41.591Z,27.00
2018-07-19T16:28:22.911Z,28.25
2018-07-19T16:29:59.471Z,36.50
2018-07-19T16:31:40.642Z,26.75
2018-07-19T16:33:19.923Z,28.50
2018-07-19T16:34:57.357Z,25.75
2018-07-19T16:37:10.307Z,25.25
2018-07-19T16:38:55.314Z,32.00
2018-07-19T16:40:37.048Z,29.25
2018-07-19T16:42:15.564Z,30.50
2018-07-19T16:43:53.925Z,25.00
2018-07-19T16:45:34.106Z,27.00
2018-07-19T16:47:26.716Z,28.50
2018-07-19T16:49:06.472Z,34.00
2018-07-19T16:51:04.865Z,25.25
2018-07-19T16:52:44.527Z,26.25
2018-07-19T16:54:22.772Z,26.25
2018-07-19T16:55:59.238Z,28.00
2018-07-19T16:57:44.045Z,27.00
2018-07-19T16:59:21.271Z,25.50
2018-07-19T17:01:03.382Z,38.75
2018-07-19T17:02:42.968Z,27.75
2018-07-19T17:04:21.325Z,27.50
2018-07-19T17:05:57.747Z,28.75
2018-07-19T17:07:34.996Z,24.00
2018-07-19T17:09:12.934Z,25.00
2018-07-19T17:10:49.260Z,28.50
2018-07-19T17:12:25.682Z,25.75
2018-07-19T17:14:05.593Z,27.75
2018-07-19T17:15:47.392Z,24.50
2018-07-19T17:17:24.581Z,28.75
2018-07-19T17:19:01.601Z,25.25
2018-07-19T17:20:38.086Z,25.75
2018-07-19T17:22:17.340Z,29.25
2018-07-19T17:23:55.315Z,26.50
2018-07-19T17:25:33.388Z,25.00
2018-07-19T17:27:10.810Z,28.00
2018-07-19T17:28:48.222Z,27.00
2018-07-19T17:30:26.692Z,26.50
2018-07-19T17:32:07.404Z,28.25
2018-07-19T17:33:44.159Z,26.00
2018-07-19T17:35:21.454Z,28.00
2018-07-19T17:36:59.904Z,26.00
2018-07-19T17:38:36.512Z,25.00
2018-07-19T17:40:17.964Z,28.50
2018-07-19T17:42:02.327Z,28.00
2018-07-19T17:43:40.351Z,28.25
2018-07-19T17:45:27.270Z,26.75
2018-07-19T17:47:05.620Z,29.50
2018-07-19T17:48:48.556Z,24.25
2018-07-19T17:50:24.972Z,27.75
2018-07-19T17:52:04.401Z,27.25
2018-07-19T17:53:42.016Z,28.25
2018-07-19T17:55:20.865Z,27.25
2018-07-19T17:57:08.698Z,29.25
2018-07-19T17:58:47.599Z,26.50
2018-07-19T18:00:26.568Z,24.25
2018-07-19T18:02:03.544Z,28.50
2018-07-19T18:03:42.317Z,25.50
2018-07-19T18:05:19.924Z,32.75
2018-07-19T18:06:57.082Z,30.00
2018-07-19T18:08:33.634Z,25.75
2018-07-19T18:10:10.146Z,27.25
2018-07-19T18:11:47.364Z,26.00
2018-07-19T18:13:24.672Z,24.25
2018-07-19T18:15:03.614Z,25.75
2018-07-19T18:16:41.038Z,26.25
2018-07-19T18:18:18.695Z,26.75
2018-07-19T18:19:55.180Z,26.25
2018-07-19T18:21:32.523Z,27.50
2018-07-19T18:23:10.063Z,29.50
2018-07-19T18:24:48.663Z,30.00
2018-07-19T18:26:28.253Z,27.75
2018-07-19T18:28:06.452Z,24.00
2018-07-19T18:29:46.155Z,25.00
2018-07-19T18:31:25.916Z,25.50
2018-07-19T18:33:03.064Z,28.25
2018-07-19T18:34:46.294Z,26.00
2018-07-19T18:36:24.162Z,25.50
2018-07-19T18:38:10.244Z,24.25
2018-07-19T18:39:53.748Z,25.25
2018-07-19T18:41:31.231Z,25.50
2018-07-19T18:43:10.519Z,26.50
2018-07-19T18:44:47.386Z,23.00
2018-07-19T18:46:24.074Z,28.25
2018-07-19T18:48:01.717Z,25.00
2018-07-19T18:49:39.063Z,29.00
2018-07-19T18:51:19.449Z,24.50
2018-07-19T18:53:07.423Z,29.75
2018-07-19T18:54:48.272Z,28.25
2018-07-19T18:56:25.289Z,28.25
2018-07-19T18:58:04.407Z,26.25
2018-07-19T18:59:55.588Z,27.25
2018-07-19T19:05:16.579Z,26.50
2018-07-19T19:06:55.110Z,24.50
2018-07-19T19:08:37.017Z,24.00
2018-07-19T19:10:24.435Z,24.75
2018-07-19T19:12:35.404Z,25.75
2018-07-19T19:14:13.726Z,23.50
2018-07-19T19:15:55.290Z,26.75
2018-07-19T19:17:33.665Z,29.00
2018-07-19T19:19:11.862Z,27.50
2018-07-19T19:20:50.405Z,26.75
2018-07-19T19:22:27.522Z,27.00
2018-07-19T19:24:03.997Z,25.00
2018-07-19T19:25:40.477Z,27.75
2018-07-19T19:27:20.334Z,27.25
2018-07-19T19:28:57.662Z,29.50
2018-07-19T19:30:35.881Z,25.75
2018-07-19T19:32:12.553Z,26.50
2018-07-19T19:33:48.943Z,27.75
2018-07-19T19:35:25.412Z,26.50
2018-07-19T19:37:01.779Z,32.75
2018-07-19T19:38:39.455Z,28.25
2018-07-19T19:40:18.487Z,29.50
2018-07-19T19:41:55.755Z,26.75
2018-07-19T19:43:34.110Z,34.00
2018-07-19T19:45:12.643Z,26.25
2018-07-19T19:46:49.518Z,26.00
2018-07-19T19:48:25.860Z,25.75
2018-07-19T19:50:03.669Z,25.25
2018-07-19T19:51:40.695Z,27.25
2018-07-19T19:53:17.216Z,26.50
2018-07-19T19:54:54.024Z,28.25
2018-07-19T19:56:31.290Z,25.75
2018-07-19T19:58:09.832Z,26.00
2018-07-19T19:59:47.583Z,33.50
2018-07-19T20:01:24.431Z,26.00
2018-07-19T20:03:04.212Z,29.00
2018-07-19T20:04:46.408Z,30.00
2018-07-19T20:06:25.568Z,25.50
2018-07-19T20:08:03.333Z,26.25
2018-07-19T20:09:44.560Z,30.00
2018-07-19T20:11:23.423Z,27.00
2018-07-19T20:13:10.207Z,41.00
2018-07-19T20:14:49.338Z,50.50
2018-07-19T20:16:31.598Z,32.50
2018-07-19T20:18:09.243Z,28.25
2018-07-19T20:19:50.736Z,26.75
2018-07-19T20:21:40.303Z,36.00
2018-07-19T20:23:19.245Z,29.25
2018-07-19T20:24:59.738Z,32.50
2018-07-19T20:26:39.010Z,32.00
2018-07-19T20:28:32.711Z,37.25
2018-07-19T20:30:16.347Z,27.25
2018-07-19T20:32:10.490Z,29.50
2018-07-19T20:33:50.610Z,31.75
2018-07-19T20:35:37.463Z,37.25
2018-07-19T20:37:17.838Z,30.75
2018-07-19T20:38:56.795Z,31.00
2018-07-19T20:40:34.465Z,59.00
2018-07-19T20:42:14.837Z,32.00
2018-07-19T20:43:55.566Z,30.50
2018-07-19T20:45:33.745Z,35.00
2018-07-19T20:47:13.136Z,34.00
2018-07-19T20:48:51.668Z,30.50
2018-07-19T20:50:28.899Z,35.25
2018-07-19T20:52:13.177Z,31.50
2018-07-19T20:53:53.482Z,35.75
2018-07-19T20:55:34.608Z,32.25
2018-07-19T20:57:18.302Z,30.25
2018-07-19T20:58:56.200Z,32.75
2018-07-19T21:00:36.279Z,27.50
2018-07-19T21:03:58.955Z,27.75
2018-07-19T21:05:38.283Z,26.25
2018-07-19T21:07:17.293Z,25.00
2018-07-19T21:09:01.683Z,25.25
2018-07-19T21:10:40.576Z,49.00
2018-07-19T21:12:21.734Z,24.75
2018-07-19T21:14:02.097Z,28.00
2018-07-19T21:15:39.646Z,27.75
2018-07-19T21:17:19.983Z,23.50
2018-07-19T21:19:00.830Z,26.00
2018-07-19T21:20:41.040Z,27.00
2018-07-19T21:22:17.680Z,27.50
2018-07-19T21:23:54.203Z,24.00
2018-07-19T21:25:32.809Z,25.25
2018-07-19T21:27:11.622Z,25.00
2018-07-19T21:28:48.108Z,22.75
2018-07-19T21:30:26.037Z,24.50
2018-07-19T21:32:06.075Z,23.75
2018-07-19T21:33:46.652Z,26.75
2018-07-19T21:35:24.378Z,21.75
2018-07-19T21:37:00.939Z,20.00
2018-07-19T21:38:37.404Z,21.75
2018-07-19T21:40:15.600Z,20.00
2018-07-19T21:42:01.969Z,19.75
2018-07-19T21:43:44.715Z,20.00
2018-07-19T21:45:46.190Z,22.75
2018-07-19T21:47:25.470Z,18.25
2018-07-19T21:49:04.835Z,19.50
2018-07-19T21:50:43.566Z,18.50
2018-07-19T21:52:21.552Z,16.00
2018-07-19T21:54:01.161Z,17.00
2018-07-19T21:55:39.298Z,20.00
2018-07-19T21:57:20.180Z,19.25
2018-07-19T21:58:59.520Z,17.50
2018-07-19T22:00:42.561Z,18.50
2018-07-19T22:02:21.555Z,19.00
2018-07-19T22:04:00.339Z,20.00
2018-07-19T22:05:38.415Z,19.00
2018-07-19T22:07:16.120Z,18.25
2018-07-19T22:08:54.495Z,18.00
2018-07-19T22:10:31.638Z,15.50
2018-07-19T22:12:08.260Z,18.00
2018-07-19T22:13:44.645Z,17.00
2018-07-19T22:15:24.599Z,16.50
2018-07-19T22:18:39.693Z,17.25
2018-07-19T22:20:17.097Z,17.00
2018-07-19T22:21:55.045Z,15.25
2018-07-19T22:23:32.449Z,18.00
2018-07-19T22:25:09.704Z,15.50
2018-07-19T22:26:46.934Z,17.00
2018-07-19T22:28:23.895Z,15.00
2018-07-19T22:30:05.571Z,16.75
2018-07-19T22:31:48.512Z,15.50
2018-07-19T22:33:28.606Z,16.50
2018-07-19T22:35:05.924Z,14.75
2018-07-19T22:36:43.957Z,13.75
2018-07-19T22:38:24.560Z,12.25
2018-07-19T22:40:01.107Z,13.00
2018-07-19T22:41:39.487Z,17.00
2018-07-19T22:44:49.288Z,15.00
2018-07-19T22:46:25.978Z,14.75
2018-07-19T22:48:02.729Z,14.25
2018-07-19T22:49:40.081Z,15.50
2018-07-19T22:51:20.501Z,14.50
2018-07-19T22:52:58.702Z,15.00
2018-07-19T22:54:50.306Z,12.00
2018-07-19T22:56:31.138Z,12.50
2018-07-19T22:58:10.263Z,14.50
2018-07-19T22:59:47.025Z,13.00
2018-07-19T23:01:24.551Z,16.50
2018-07-19T23:03:02.777Z,18.75
2018-07-19T23:04:44.260Z,13.75
2018-07-19T23:06:22.734Z,14.25
2018-07-19T23:07:59.732Z,12.75
2018-07-19T23:09:36.386Z,13.00
2018-07-19T23:11:14.928Z,13.25
2018-07-19T23:12:53.276Z,14.50
2018-07-19T23:14:31.655Z,11.50
2018-07-19T23:16:09.323Z,16.00
2018-07-19T23:17:48.177Z,13.25
2018-07-19T23:19:30.784Z,14.00
2018-07-19T23:21:09.065Z,12.25
2018-07-19T23:22:58.640Z,15.00
2018-07-19T23:24:35.598Z,14.00
2018-07-19T23:26:12.575Z,14.00
2018-07-19T23:27:51.213Z,13.00
2018-07-19T23:29:37.797Z,13.50
2018-07-19T23:31:20.049Z,15.50
2018-07-19T23:32:56.915Z,11.50
2018-07-19T23:34:33.697Z,14.75
2018-07-19T23:36:46.958Z,14.75
2018-07-19T23:38:28.592Z,14.25
2018-07-19T23:40:22.262Z,13.50
2018-07-19T23:42:19.131Z,12.00
2018-07-19T23:43:59.611Z,15.00
2018-07-19T23:45:43.814Z,10.50
2018-07-19T23:47:25.223Z,14.00
2018-07-19T23:49:11.561Z,15.50
2018-07-19T23:50:47.955Z,11.00
2018-07-19T23:52:25.285Z,11.75
2018-07-19T23:54:02.315Z,12.50
2018-07-19T23:55:39.710Z,12.50